D/T METAR WX W/SPE G/SPE TEMP DEWP FEEL
31/01/23 12:20 EGUW 311220Z 28022KT 9999 BKN026 10/05 Q1020 NOSIG RMK BLU BLU 25.3mph 10°C 5°C 9.3°C
31/01/23 07:20 EGUW 310720Z AUTO 24010KT //// VV/// ///// Q//// 11.5mph 0°C 0°C -2.2°C
31/01/23 06:50 EGUW 310650Z AUTO 24010KT 9999 SCT040/// SCT190/// 04/02 Q1021 11.5mph 4°C 2°C 2.4°C
30/01/23 21:50 EGUW 302150Z AUTO 23006KT 9999 NCD 01/00 Q1026 6.9mph 1°C 0°C -1.2°C
30/01/23 12:50 EGUW 301250Z 30014KT 9999 FEW030 08/03 Q1023 NOSIG RMK BLU BLU 16.1mph 8°C 3°C 6.7°C
30/01/23 11:50 EGUW 301150Z 31014KT 9999 FEW021 FEW250 08/03 Q1023 NOSIG RMK BLU BLU 16.1mph 8°C 3°C 6.7°C
30/01/23 10:50 EGUW 301050Z 29016G26KT CAVOK 07/02 Q1022 NOSIG RMK BLU BLU 18.4mph 29.9mph 7°C 2°C 5.4°C
30/01/23 10:20 EGUW 301020Z AUTO 29016KT 9999 NCD 07/02 Q1022 18.4mph 7°C 2°C 5.4°C
30/01/23 07:50 EGUW 300750Z 28013KT 9999 FEW035 05/01 Q1020 NOSIG RMK BLU BLU 15.0mph 5°C 1°C 3.1°C
30/01/23 06:20 EGUW 300620Z AUTO 28012KT 9999 FEW036/// 05/00 Q1020 13.8mph 5°C 0°C 2.8°C
09/01/23 06:20 EGUW 090620Z AUTO 26010KT 9999 FEW037/// 04/03 Q0993 11.5mph 4°C 3°C 2.7°C
09/01/23 05:50 EGUW 090550Z AUTO 25009KT 9999 BKN130/// 04/03 Q0992 10.4mph 4°C 3°C 2.7°C
09/01/23 05:20 EGUW 090520Z AUTO 25010KT 9999 OVC110/// 04/03 Q0992 11.5mph 4°C 3°C 2.7°C
09/01/23 04:50 EGUW 090450Z AUTO 26010KT 9999 FEW062/// BKN130/// 04/03 Q0991 11.5mph 4°C 3°C 2.7°C
09/01/23 04:20 EGUW 090420Z AUTO 26010KT 9999 SCT028/// SCT059/// 04/03 Q0991 11.5mph 4°C 3°C 2.7°C
09/01/23 03:50 EGUW 090350Z AUTO 26009KT 9999 OVC032/// 04/04 Q0990 10.4mph 4°C 4°C 3.0°C
09/01/23 03:20 EGUW 090320Z AUTO 26009KT 9999 // FEW009/// OVC032/// 05/04 Q0990 10.4mph 5°C 4°C 4.0°C
09/01/23 02:50 EGUW 090250Z AUTO 24006KT 9999 // BKN008/// OVC026/// 05/04 Q0990 6.9mph 5°C 4°C 4.0°C
09/01/23 02:20 EGUW 090220Z AUTO 25004KT 9999 // OVC008/// 05/04 Q0989 4.6mph 5°C 4°C 4.0°C
09/01/23 01:20 EGUW 090120Z AUTO 20006KT 9999 FEW016/// OVC028/// 05/04 Q0989 6.9mph 5°C 4°C 4.0°C
09/01/23 00:50 EGUW 090050Z AUTO 18005KT 9999 OVC026/// 05/04 Q0988 5.8mph 5°C 4°C 4.0°C
09/01/23 00:20 EGUW 090020Z AUTO 18006KT 9999 BKN032/// 04/03 Q0988 6.9mph 4°C 3°C 2.7°C
08/01/23 23:50 EGUW 082350Z AUTO 18007KT 9999 NCD 04/03 Q0988 8.1mph 4°C 3°C 2.7°C
08/01/23 23:20 EGUW 082320Z AUTO 19007KT 9999 NCD 04/03 Q0988 8.1mph 4°C 3°C 2.7°C
08/01/23 22:50 EGUW 082250Z AUTO 19008KT 9999 NCD 04/03 Q0988 9.2mph 4°C 3°C 2.7°C
08/01/23 22:20 EGUW 082220Z AUTO 18007KT 9999 NCD 04/03 Q0989 8.1mph 4°C 3°C 2.7°C
08/01/23 21:50 EGUW 082150Z AUTO 19006KT 9999 NCD 04/03 Q0989 6.9mph 4°C 3°C 2.7°C
08/01/23 20:20 EGUW 082020Z AUTO 23008KT 9999 FEW074/// BKN094/// 04/03 Q0989 9.2mph 4°C 3°C 2.7°C
08/01/23 19:20 EGUW 081920Z AUTO 24012KT 9999 // BKN009/// BKN026/// BKN056/// 05/03 Q0989 13.8mph 5°C 3°C 3.7°C
08/01/23 18:50 EGUW 081850Z AUTO 22014KT 9999 RA OVC009/// 06/05 Q0988 RA 16.1mph 6°C 5°C 5.3°C
08/01/23 18:20 EGUW 081820Z AUTO 20011KT 9999 FEW023/// OVC035/// 06/04 Q0988 12.7mph 6°C 4°C 5.0°C
08/01/23 17:50 EGUW 081750Z AUTO 20011KT 9999 // SCT073/// 06/05 Q0988 12.7mph 6°C 5°C 5.3°C
08/01/23 17:20 EGUW 081720Z AUTO 19009KT 9999 // FEW045/// BKN055/// 06/05 Q0988 10.4mph 6°C 5°C 5.3°C
08/01/23 16:50 EGUW 081650Z AUTO 20010KT 9999 -RA BKN044/// SCT069/// BKN100/// 06/05 Q0988 -RA 11.5mph 6°C 5°C 5.3°C
08/01/23 16:20 EGUW 081620Z AUTO 22012KT 9999 RA FEW012/// BKN027/// BKN037/// 06/05 Q0988 RA 13.8mph 6°C 5°C 5.3°C
08/01/23 15:50 EGUW 081550Z AUTO 20012KT 3700 RA FEW019/// OVC024/// 07/06 Q0989 RA 13.8mph 7°C 6°C 6.6°C
08/01/23 15:20 EGUW 081520Z AUTO 23013KT 1100 +RA OVC011/// 07/05 Q0989 +RA 15.0mph 7°C 5°C 6.3°C
08/01/23 14:20 EGUW 081420Z AUTO 19015KT 9999 // OVC019/// 09/06 Q0989 17.3mph 9°C 6°C 8.6°C
08/01/23 13:50 EGUW 081350Z AUTO 19012KT 9999 // FEW021/// SCT041/// 09/06 Q0990 13.8mph 9°C 6°C 8.6°C
08/01/23 13:20 EGUW 081320Z AUTO 19017G27KT 9999 OVC018/// 09/06 Q0990 19.6mph 31.1mph 9°C 6°C 8.6°C
08/01/23 12:50 EGUW 081250Z AUTO 19016KT 9999 OVC016/// 10/06 Q0991 18.4mph 10°C 6°C 9.6°C
08/01/23 12:20 EGUW 081220Z AUTO 19015KT 9999 OVC010/// 09/07 Q0991 17.3mph 9°C 7°C 9.0°C
08/01/23 11:50 EGUW 081150Z AUTO 18013G23KT 9999 OVC010/// 08/06 Q0992 15.0mph 26.5mph 8°C 6°C 7.6°C
08/01/23 11:20 EGUW 081120Z AUTO 19014KT 9999 BKN012/// 08/06 Q0993 16.1mph 8°C 6°C 7.6°C
08/01/23 10:50 EGUW 081050Z AUTO 19013KT 9999 FEW011/// 08/05 Q0993 15.0mph 8°C 5°C 7.3°C
08/01/23 10:20 EGUW 081020Z AUTO 19011KT 9999 FEW010/// 08/05 Q0994 12.7mph 8°C 5°C 7.3°C
08/01/23 09:50 EGUW 080950Z AUTO 18010KT 9999 FEW010/// 07/05 Q0994 11.5mph 7°C 5°C 6.3°C
08/01/23 09:20 EGUW 080920Z AUTO 19012KT 9999 FEW012/// BKN035/// 07/05 Q0994 13.8mph 7°C 5°C 6.3°C
08/01/23 08:50 EGUW 080850Z AUTO 19011KT 9999 FEW015/// SCT040/// 06/05 Q0994 12.7mph 6°C 5°C 5.3°C
08/01/23 08:20 EGUW 080820Z AUTO 19011KT 9999 FEW033/// BKN045/// 06/05 Q0994 12.7mph 6°C 5°C 5.3°C
08/01/23 07:50 EGUW 080750Z AUTO 19010KT 9999 // BKN031/// BKN130/// 06/04 Q0994 11.5mph 6°C 4°C 5.0°C
08/01/23 07:20 EGUW 080720Z AUTO 20013KT 9999 // SCT035/// 07/05 Q0994 15.0mph 7°C 5°C 6.3°C
08/01/23 06:50 EGUW 080650Z AUTO 19011KT 9999 // FEW035/// 06/05 Q0995 12.7mph 6°C 5°C 5.3°C
08/01/23 06:20 EGUW 080620Z AUTO 20015KT 9999 RA FEW024/// 07/05 Q0995 RA 17.3mph 7°C 5°C 6.3°C
08/01/23 05:50 EGUW 080550Z AUTO 20012KT 9999 RA SCT026/// SCT100/// 07/05 Q0995 RA 13.8mph 7°C 5°C 6.3°C
08/01/23 05:20 EGUW 080520Z AUTO 21011KT 9999 BKN020/// OVC095/// 07/05 Q0995 12.7mph 7°C 5°C 6.3°C
08/01/23 04:50 EGUW 080450Z AUTO 19011KT 9999 BKN120/// BKN200/// 07/04 Q0995 12.7mph 7°C 4°C 6.0°C
08/01/23 04:20 EGUW 080420Z AUTO 19012KT 9999 SCT130/// 07/05 Q0995 13.8mph 7°C 5°C 6.3°C
08/01/23 03:50 EGUW 080350Z AUTO 20011KT 9999 SCT021/// 07/05 Q0995 12.7mph 7°C 5°C 6.3°C
08/01/23 03:20 EGUW 080320Z AUTO 18009KT 9999 BKN021/// 07/05 Q0996 10.4mph 7°C 5°C 6.3°C
08/01/23 02:50 EGUW 080250Z AUTO 18009KT 9999 FEW025/// 07/05 Q0996 10.4mph 7°C 5°C 6.3°C
08/01/23 02:20 EGUW 080220Z AUTO 19010KT 9999 SCT065/// 07/05 Q0996 11.5mph 7°C 5°C 6.3°C
08/01/23 01:50 EGUW 080150Z AUTO 20011KT 9999 NCD 07/05 Q0996 12.7mph 7°C 5°C 6.3°C
08/01/23 01:20 EGUW 080120Z AUTO 19011KT 9999 NCD 07/05 Q0996 12.7mph 7°C 5°C 6.3°C
08/01/23 00:20 EGUW 080020Z AUTO 20012KT 9999 NCD 06/04 Q0996 13.8mph 6°C 4°C 5.0°C
07/01/23 23:50 EGUW 072350Z AUTO 20012KT 9999 NCD 06/04 Q0996 13.8mph 6°C 4°C 5.0°C
07/01/23 23:20 EGUW 072320Z AUTO 20010KT 9999 NCD 06/04 Q0996 11.5mph 6°C 4°C 5.0°C
07/01/23 22:50 EGUW 072250Z AUTO 20009KT 9999 NCD 06/04 Q0997 10.4mph 6°C 4°C 5.0°C
07/01/23 22:20 EGUW 072220Z AUTO 21010KT 9999 NCD 06/04 Q0997 11.5mph 6°C 4°C 5.0°C
07/01/23 21:50 EGUW 072150Z AUTO 21013KT 9999 NCD 07/04 Q0997 15.0mph 7°C 4°C 6.0°C
07/01/23 21:20 EGUW 072120Z AUTO 22014KT 9999 NCD 07/04 Q0996 16.1mph 7°C 4°C 6.0°C
07/01/23 20:50 EGUW 072050Z AUTO 22014KT 9999 NCD 07/04 Q0996 16.1mph 7°C 4°C 6.0°C
07/01/23 20:20 EGUW 072020Z AUTO 22016KT 9999 NCD 07/04 Q0996 18.4mph 7°C 4°C 6.0°C
07/01/23 19:50 EGUW 071950Z AUTO 22015KT 9999 // NCD 07/04 Q0995 17.3mph 7°C 4°C 6.0°C
07/01/23 19:20 EGUW 071920Z AUTO 22020G31KT 9999 // FEW020/// SCT048/// 08/04 Q0995 23.0mph 35.7mph 8°C 4°C 7.0°C
07/01/23 18:50 EGUW 071850Z AUTO 20014KT 9000 -RA OVC024/// 09/07 Q0995 -RA 16.1mph 9°C 7°C 9.0°C
07/01/23 18:20 EGUW 071820Z AUTO 20015KT 9999 RA SCT010/// BKN038/// 08/07 Q0995 RA 17.3mph 8°C 7°C 8.0°C
07/01/23 17:50 EGUW 071750Z AUTO 18010KT 6000 RA SCT020/// OVC028/// 10/08 Q0995 RA 11.5mph 10°C 8°C 10.4°C
07/01/23 17:20 EGUW 071720Z AUTO 20011KT 9999 // SCT020/// 09/08 Q0995 12.7mph 9°C 8°C 9.4°C
07/01/23 16:50 EGUW 071650Z AUTO 19013KT 9999 -RA OVC015/// 10/08 Q0995 -RA 15.0mph 10°C 8°C 10.4°C
07/01/23 16:20 EGUW 071620Z AUTO 19012KT 9999 -RA OVC011/// 10/08 Q0995 -RA 13.8mph 10°C 8°C 10.4°C
07/01/23 15:50 EGUW 071550Z AUTO 19015KT 9999 +DZ OVC010/// 10/08 Q0996 +DZ 17.3mph 10°C 8°C 10.4°C
07/01/23 15:20 EGUW 071520Z AUTO 19014KT 9999 OVC013/// 10/08 Q0996 16.1mph 10°C 8°C 10.4°C
07/01/23 14:50 EGUW 071450Z AUTO 18014KT 9999 OVC013/// 10/08 Q0996 16.1mph 10°C 8°C 10.4°C
07/01/23 14:20 EGUW 071420Z AUTO 19014KT 9999 OVC011/// 10/08 Q0997 16.1mph 10°C 8°C 10.4°C
07/01/23 13:50 EGUW 071350Z AUTO 18014KT 9999 OVC009/// 09/08 Q0997 16.1mph 9°C 8°C 9.4°C
07/01/23 12:50 EGUW 071250Z AUTO 18014KT 9999 // OVC009/// 09/08 Q0998 16.1mph 9°C 8°C 9.4°C
07/01/23 12:20 EGUW 071220Z AUTO 18016G26KT 9999 -DZ OVC009/// 09/08 Q0998 -DZ 18.4mph 29.9mph 9°C 8°C 9.4°C
07/01/23 11:50 EGUW 071150Z AUTO 18015KT 9999 // OVC009/// 09/07 Q0999 17.3mph 9°C 7°C 9.0°C
07/01/23 11:20 EGUW 071120Z AUTO 17017KT 9999 -DZ OVC009/// 09/07 Q0999 -DZ 19.6mph 9°C 7°C 9.0°C
07/01/23 10:50 EGUW 071050Z AUTO 18017G30KT 4800 -RA OVC013/// 09/07 Q1000 -RA 19.6mph 34.5mph 9°C 7°C 9.0°C
07/01/23 10:20 EGUW 071020Z AUTO 17018KT 9999 -RA OVC019/// 10/07 Q1000 -RA 20.7mph 10°C 7°C 10.0°C
07/01/23 09:50 EGUW 070950Z AUTO 18019G29KT 9999 OVC022/// 10/06 Q1001 21.9mph 33.4mph 10°C 6°C 9.6°C
07/01/23 09:20 EGUW 070920Z AUTO 18021G33KT 9999 FEW032/// BKN040/// 10/06 Q1001 24.2mph 38.0mph 10°C 6°C 9.6°C
07/01/23 08:50 EGUW 070850Z AUTO 18020G32KT 9999 OVC039/// 10/06 Q1002 23.0mph 36.8mph 10°C 6°C 9.6°C
07/01/23 08:20 EGUW 070820Z AUTO 18019G33KT 9999 OVC044/// 10/06 Q1002 21.9mph 38.0mph 10°C 6°C 9.6°C